sensor_id;sensor_type;location;lat;lon;timestamp;pressure;altitude;pressure_sealevel;temperature;humidity
79782;BME280;69262;48.470;7.960;2023-05-07T14:40:32;99775.00;;;20.77;58.69
79782;BME280;69262;48.470;7.960;2023-05-07T14:43:32;99773.34;;;20.93;58.32
79782;BME280;69262;48.470;7.960;2023-05-07T14:46:32;99762.63;;;20.92;57.70
79782;BME280;69262;48.470;7.960;2023-05-07T14:49:33;99767.19;;;20.86;57.55
79782;BME280;69262;48.470;7.960;2023-05-07T14:52:34;99768.75;;;20.99;57.55
79782;BME280;69262;48.470;7.960;2023-05-07T14:55:34;99750.53;;;21.09;57.12
79782;BME280;69262;48.470;7.960;2023-05-07T14:58:35;99778.63;;;21.17;57.74
79782;BME280;69262;48.470;7.960;2023-05-07T15:01:36;99776.00;;;21.05;57.80
79782;BME280;69262;48.470;7.960;2023-05-07T15:04:37;99780.28;;;21.18;57.14
79782;BME280;69262;48.470;7.960;2023-05-07T15:07:38;99788.13;;;21.09;57.30
79782;BME280;69262;48.470;7.960;2023-05-07T15:10:38;99773.06;;;21.12;56.99
79782;BME280;69262;48.470;7.960;2023-05-07T15:13:42;99778.44;;;21.23;56.33
79782;BME280;69262;48.470;7.960;2023-05-07T15:16:42;99789.94;;;21.03;56.72
79782;BME280;69262;48.470;7.960;2023-05-07T15:19:42;99794.06;;;21.23;56.91
79782;BME280;69262;48.470;7.960;2023-05-07T15:22:43;99783.69;;;21.25;56.56
79782;BME280;69262;48.470;7.960;2023-05-07T15:25:43;99781.63;;;21.15;56.73
79782;BME280;69262;48.470;7.960;2023-05-07T15:28:43;99787.94;;;21.16;56.29
79782;BME280;69262;48.470;7.960;2023-05-07T15:31:44;99796.81;;;20.84;58.72
79782;BME280;69262;48.470;7.960;2023-05-07T15:34:44;99797.78;;;20.78;59.21
79782;BME280;69262;48.470;7.960;2023-05-07T15:37:46;99795.53;;;20.75;59.60
79782;BME280;69262;48.470;7.960;2023-05-07T15:40:47;99788.72;;;20.77;59.53
79782;BME280;69262;48.470;7.960;2023-05-07T15:43:49;99794.22;;;20.77;59.66
79782;BME280;69262;48.470;7.960;2023-05-07T15:46:50;99800.03;;;20.98;58.71
79782;BME280;69262;48.470;7.960;2023-05-07T15:49:50;99800.78;;;21.10;58.11
79782;BME280;69262;48.470;7.960;2023-05-07T15:52:51;99796.19;;;21.16;57.72
79782;BME280;69262;48.470;7.960;2023-05-07T15:55:51;99805.41;;;21.26;56.72
79782;BME280;69262;48.470;7.960;2023-05-07T15:58:52;99810.16;;;21.31;56.54
79782;BME280;69262;48.470;7.960;2023-05-07T16:01:52;99811.06;;;21.36;56.59
79782;BME280;69262;48.470;7.960;2023-05-07T16:04:53;99810.75;;;21.33;56.53
79782;BME280;69262;48.470;7.960;2023-05-07T16:07:53;99805.50;;;21.15;56.57
79782;BME280;69262;48.470;7.960;2023-05-07T16:10:54;99795.44;;;21.03;56.71
79782;BME280;69262;48.470;7.960;2023-05-07T16:13:54;99806.78;;;21.07;56.97
79782;BME280;69262;48.470;7.960;2023-05-07T16:16:55;99809.25;;;21.08;57.25
79782;BME280;69262;48.470;7.960;2023-05-07T16:19:55;99804.94;;;21.13;56.93
79782;BME280;69262;48.470;7.960;2023-05-07T16:22:58;99798.59;;;21.12;56.63
79782;BME280;69262;48.470;7.960;2023-05-07T16:25:58;99808.19;;;21.09;56.76
79782;BME280;69262;48.470;7.960;2023-05-07T16:28:59;99805.50;;;21.15;56.73
79782;BME280;69262;48.470;7.960;2023-05-07T16:32:00;99801.03;;;21.08;57.22
79782;BME280;69262;48.470;7.960;2023-05-07T16:35:01;99806.00;;;21.12;57.05
79782;BME280;69262;48.470;7.960;2023-05-07T16:38:01;99802.91;;;21.42;56.34
79782;BME280;69262;48.470;7.960;2023-05-07T16:41:08;99799.56;;;21.39;56.54
79782;BME280;69262;48.470;7.960;2023-05-07T16:44:09;99804.50;;;21.37;56.65
79782;BME280;69262;48.470;7.960;2023-05-07T16:47:09;99798.69;;;21.34;56.70
79782;BME280;69262;48.470;7.960;2023-05-07T16:50:09;99804.44;;;21.32;56.81
79782;BME280;69262;48.470;7.960;2023-05-07T16:53:10;99809.09;;;21.32;56.78
79782;BME280;69262;48.470;7.960;2023-05-07T16:56:10;99819.00;;;21.33;56.77
79782;BME280;69262;48.470;7.960;2023-05-07T16:59:11;99816.75;;;21.30;56.74
79782;BME280;69262;48.470;7.960;2023-05-07T17:02:11;99820.06;;;21.32;56.83
79782;BME280;69262;48.470;7.960;2023-05-07T17:05:12;99823.56;;;21.27;56.69
79782;BME280;69262;48.470;7.960;2023-05-07T17:08:12;99837.28;;;21.27;56.80
79782;BME280;69262;48.470;7.960;2023-05-07T17:11:12;99843.03;;;21.26;56.58
79782;BME280;69262;48.470;7.960;2023-05-07T17:14:13;99818.91;;;21.11;56.88
79782;BME280;69262;48.470;7.960;2023-05-07T17:17:13;99849.53;;;21.36;56.55
79782;BME280;69262;48.470;7.960;2023-05-07T17:20:13;99829.97;;;21.16;56.90
79782;BME280;69262;48.470;7.960;2023-05-07T17:23:14;99828.81;;;21.12;56.90
79782;BME280;69262;48.470;7.960;2023-05-07T17:26:15;99827.53;;;21.03;57.05
79782;BME280;69262;48.470;7.960;2023-05-07T17:29:16;99834.78;;;21.09;57.23
79782;BME280;69262;48.470;7.960;2023-05-07T17:32:16;99858.25;;;21.17;57.04
79782;BME280;69262;48.470;7.960;2023-05-07T17:35:16;99853.00;;;21.15;57.15
79782;BME280;69262;48.470;7.960;2023-05-07T17:38:17;99828.06;;;21.00;56.89
79782;BME280;69262;48.470;7.960;2023-05-07T17:41:17;99860.41;;;21.15;57.49
79782;BME280;69262;48.470;7.960;2023-05-07T17:44:17;99861.16;;;21.10;57.33
79782;BME280;69262;48.470;7.960;2023-05-07T17:47:20;99869.66;;;21.08;57.27
79782;BME280;69262;48.470;7.960;2023-05-07T17:50:20;99854.91;;;20.98;57.51
79782;BME280;69262;48.470;7.960;2023-05-07T17:53:20;99855.41;;;20.95;57.36
79782;BME280;69262;48.470;7.960;2023-05-07T17:56:23;99878.88;;;21.02;57.68
79782;BME280;69262;48.470;7.960;2023-05-07T17:59:24;99908.34;;;21.07;57.49
79782;BME280;69262;48.470;7.960;2023-05-07T18:02:24;99905.00;;;21.05;57.49
79782;BME280;69262;48.470;7.960;2023-05-07T18:05:25;99909.16;;;21.07;58.47
79782;BME280;69262;48.470;7.960;2023-05-07T18:08:25;99899.66;;;20.98;59.19
79782;BME280;69262;48.470;7.960;2023-05-07T18:11:27;99889.09;;;20.90;58.65
79782;BME280;69262;48.470;7.960;2023-05-07T18:14:27;99911.22;;;21.00;57.94
79782;BME280;69262;48.470;7.960;2023-05-07T18:17:28;99900.59;;;20.87;58.74
79782;BME280;69262;48.470;7.960;2023-05-07T18:20:28;99891.84;;;20.90;58.95
79782;BME280;69262;48.470;7.960;2023-05-07T18:23:29;99909.47;;;20.94;58.79
79782;BME280;69262;48.470;7.960;2023-05-07T18:26:29;99906.72;;;20.94;58.59
79782;BME280;69262;48.470;7.960;2023-05-07T18:29:29;99902.75;;;20.85;58.89
79782;BME280;69262;48.470;7.960;2023-05-07T18:32:30;99891.19;;;20.83;58.79
79782;BME280;69262;48.470;7.960;2023-05-07T18:35:30;99877.78;;;20.70;58.88
79782;BME280;69262;48.470;7.960;2023-05-07T18:38:31;99918.22;;;20.91;58.90
79782;BME280;69262;48.470;7.960;2023-05-07T18:41:31;99904.53;;;20.79;59.15
79782;BME280;69262;48.470;7.960;2023-05-07T18:44:32;99916.34;;;20.80;59.48
79782;BME280;69262;48.470;7.960;2023-05-07T18:47:36;99918.63;;;20.83;59.36
79782;BME280;69262;48.470;7.960;2023-05-07T18:50:40;99912.19;;;20.77;59.59
79782;BME280;69262;48.470;7.960;2023-05-07T18:53:41;99922.91;;;20.79;59.46
79782;BME280;69262;48.470;7.960;2023-05-07T18:56:41;99906.28;;;20.69;59.50
79782;BME280;69262;48.470;7.960;2023-05-07T18:59:42;99931.72;;;20.81;59.83
79782;BME280;69262;48.470;7.960;2023-05-07T19:02:42;99932.47;;;20.76;59.98
79782;BME280;69262;48.470;7.960;2023-05-07T19:05:43;99942.13;;;20.79;59.66
79782;BME280;69262;48.470;7.960;2023-05-07T19:08:44;99935.88;;;20.67;60.19
79782;BME280;69262;48.470;7.960;2023-05-07T19:11:44;99936.47;;;20.69;59.93
79782;BME280;69262;48.470;7.960;2023-05-07T19:14:45;99919.13;;;20.52;59.99
79782;BME280;69262;48.470;7.960;2023-05-07T19:17:45;99951.69;;;20.76;60.15
79782;BME280;69262;48.470;7.960;2023-05-07T19:20:47;99952.75;;;20.75;60.04
79782;BME280;69262;48.470;7.960;2023-05-07T19:23:47;99930.31;;;20.62;60.02
79782;BME280;69262;48.470;7.960;2023-05-07T19:26:50;99936.50;;;20.57;60.38
79782;BME280;69262;48.470;7.960;2023-05-07T19:29:50;99954.59;;;20.70;60.23
79782;BME280;69262;48.470;7.960;2023-05-07T19:32:51;99952.84;;;20.64;60.12
79782;BME280;69262;48.470;7.960;2023-05-07T19:35:51;99950.78;;;20.59;60.16
79782;BME280;69262;48.470;7.960;2023-05-07T19:38:53;99956.06;;;20.61;60.56
79782;BME280;69262;48.470;7.960;2023-05-07T19:41:53;99970.47;;;20.68;60.65
79782;BME280;69262;48.470;7.960;2023-05-07T19:44:53;99976.28;;;20.71;60.52
79782;BME280;69262;48.470;7.960;2023-05-07T19:47:54;99953.78;;;20.58;60.64
79782;BME280;69262;48.470;7.960;2023-05-07T19:50:54;99942.53;;;20.42;60.62
79782;BME280;69262;48.470;7.960;2023-05-07T19:53:55;99955.25;;;20.48;60.54
79782;BME280;69262;48.470;7.960;2023-05-07T19:56:55;99997.31;;;20.66;60.49
79782;BME280;69262;48.470;7.960;2023-05-07T19:59:56;99983.72;;;20.59;60.79
79782;BME280;69262;48.470;7.960;2023-05-07T20:02:56;99964.91;;;20.51;60.79
79782;BME280;69262;48.470;7.960;2023-05-07T20:05:56;99973.13;;;20.51;60.80
79782;BME280;69262;48.470;7.960;2023-05-07T20:08:57;99998.88;;;20.62;60.73
79782;BME280;69262;48.470;7.960;2023-05-07T20:11:57;99997.59;;;20.53;60.62
